AirNav   Air Wisconsin pilot careers
 
 1339 users online  

CL35 Warner Springs Gliderport
Warner Springs, California, USA

GOING TO WARNER SPRINGS?


FAA INFORMATION EFFECTIVE 01 FEBRUARY 2018

Location

FAA Identifier: CL35
Lat/Long: 33-17-04.2100N / 116-40-10.7650W
33-17.070167N / 116-40.179417W
33.2845028 / -116.6696569
(estimated)
Elevation: 2880 ft. / 878 m (estimated)
Variation: 13E (1985)
From city: 2 miles E of WARNER SPRINGS, CA
Time zone: UTC -8 (UTC -7 during Daylight Saving Time)
Zip code: 92086

Gliderport Operations

Gliderport use: Private use. Permission required prior to landing
Activation date: 10/1984
Control tower: no
ARTCC: LOS ANGELES CENTER
FSS: SAN DIEGO FLIGHT SERVICE STATION
Attendance: 0900-1700
Wind indicator: yes
Segmented circle: yes
Landing fee: yes

Gliderport Communications

UNICOM: 122.8
WX AWOS-3 at L08 (18 nm E): 126.575 (760-767-3308)
WX ASOS at RNM (19 nm SW): 132.025 (760-789-0736)

Nearby radio navigation aids

VOR radial/distance  VOR name  Freq  Var
JLIr319/9.6JULIAN VORTAC114.0015E
TRMr218/32.8THERMAL VORTAC116.2013E
PSPr186/37.1PALM SPRINGS VORTAC115.5013E
OCNr071/37.6OCEANSIDE VORTAC115.3015E
HDFr125/(39.2)HOMELAND VOR113.4014E

Gliderport Services

Runway Information

Runway 8/26

Dimensions: 3500 x 70 ft. / 1067 x 21 m
Surface: asphalt
RUNWAY 8  RUNWAY 26
Latitude: 33-17.060333N33-17.080000N
Longitude: 116-40.522667W116-39.836167W
Elevation: 2873.0 ft.2914.0 ft.
Traffic pattern: leftleft
Obstructions: none200 ft. hill, 5200 ft. from runway

Gliderport Ownership and Management from official FAA records

Ownership: Privately-owned
Owner: WARNER SPRINGS RANCH RESORT, LLC
31930 HWY 79
WARNER SPRINGS, CA 92086
Phone 760-782-4200
SKY SAILING 31930 HWY 79.
Manager: BRET WILLAT
SKY SAILING 31930 HWY 79
WARNER SPRINGS, CA 92086
Phone 760-782-0404
LEASEE.

Gliderport Operational Statistics

Aircraft based on the field: 80
Single engine airplanes: 10
Gliders airplanes: 70
    

Instrument Procedures

There are no published instrument procedures at CL35.

Some nearby airports with instrument procedures:

L08 - Borrego Valley Airport (18 nm E)
KRNM - Ramona Airport (19 nm SW)
F70 - French Valley Airport (29 nm NW)
L18 - Fallbrook Community Airpark (29 nm W)
KSEE - Gillespie Field Airport (31 nm SW)
 
Loc | Ops | Rwys | IFR | FBO | Links
Com | Nav | Svcs | Stats | Notes

AirNav Hotels Sweepstakes
 
Area around CL35 (Warner Springs Gliderport)
 
Road maps at: MapQuest Bing Google
 
Aerial photo
WARNING: Photo may not be current or correct
Aerial photo of CL35 (Warner Springs Gliderport)
Photo by Steve Lupinacci
Photo taken 27-May-2008

Do you have a better or more recent aerial photo of Warner Springs Gliderport that you would like to share? If so, please send us your photo.

 
Sectional chart

 
Airport distance calculator
Flying to Warner Springs Gliderport? Find the distance to fly.

From to CL35

Sunrise and sunset
Times for 22-Feb-2018
 Local
(UTC-8)
 Zulu
(UTC)
Morning civil twilight05:5913:59
Sunrise06:2414:24
Sunset17:3601:36
Evening civil twilight18:0202:02

Current date and time
Zulu (UTC)  22-Feb-2018 22:19:48
Local (UTC-8)  22-Feb-2018 14:19:48
 
METAR
KRNM 
20nm SW 
222153Z 27011KT 10SM SCT027 BKN034 BKN060 12/05 A3018 RMK AO2 SLP223 T01220050
KF70 
29nm NW 
222155Z AUTO 24010G14KT 10SM SCT045 SCT050 13/01 A3017 RMK AO1
KL18 
29nm W 
222155Z AUTO 24011G15KT 10SM SCT035 BKN048 BKN060 14/04 A3020 RMK AO2
KSEE 
32nm SW 
222147Z 24011KT 10SM BKN055 OVC070 14/05 A3020
KCRQ 
32nm W 
222153Z AUTO 27006G15KT 10SM FEW033 BKN065 13/07 A3020 RMK AO2 RAB2058E09 SLP226 P0000 T01330067
KTRM 
33nm NE 
222152Z AUTO 28013KT 10SM CLR 21/M01 A3009 RMK AO2 PK WND 26027/2135 SLP190 T02061011
KPSP 
33nm N 
222153Z 11009KT 10SM FEW090 18/M02 A3011 RMK AO2 SLP197 T01781022
KNFG 
33nm W 
222055Z 24010G16KT 10SM SCT049 BKN055 15/07 A3022 RMK AO2 SLP233 60003 T01500067 58014
KNKX 
34nm SW 
222155Z 23014KT 10SM FEW025 OVC036 14/08 A3021 RMK AO2 SLP227 T01440083 $
KOKB 
34nm W 
222152Z AUTO 23011KT 10SM CLR 16/07 A3020 RMK AO2 RAB2057E14 SLP226 P0000 T01560067
TAF
KCRQ 
32nm W 
221740Z 2218/2318 18007KT P6SM SCT035 FM221900 24011KT P6SM SCT035 FM230200 27006KT P6SM VCSH SCT035 BKN050 FM230900 28012G18KT P6SM VCSH SCT035 BKN050
KTRM 
33nm NE 
221740Z 2218/2318 13007KT P6SM SKC FM230000 28012G20KT P6SM SKC FM230300 32012G20KT P6SM SKC
KPSP 
33nm N 
221740Z 2218/2318 VRB05KT P6SM SKC FM221900 10008KT P6SM SKC FM230000 34012G20KT P6SM SKC FM230700 34007KT P6SM SKC FM231500 34012G20KT P6SM SKC
KNFG 
33nm W 
2215/2315 VRB05KT 9999 SCT040 QNH3020INS BECMG 2218/2220 24009KT 9999 SCT015 BKN030 QNH3019INS TEMPO 2221/2302 26011G20KT FM231000 VRB05KT 9999 SCT040 BKN055 QNH3017INS T01/2215Z T15/2223Z
KNKX 
34nm SW 
2215/2315 VRB05KT 9999 VCSH BKN050 620503 QNH3019INS BECMG 2218/2220 25010KT 9999 VCSH SCT025 BKN040 620404 QNH3017INS TEMPO 2220/2302 -SHRA SCT025 OVC040 FM230330 25008KT 9999 VCSH SCT030 BKN050 620503 QNH3018INS BECMG 2307/2309 25008KT 9999 NSW BKN050 620503 QNH3020INS TEMPO 2309/2315 25012G20KT T07/2215Z T16/2222Z
NOTAMs
Click for the latest NOTAMs
NOTAMs are issued by the DoD/FAA and will open in a separate window not controlled by AirNav.

 

 
 

Would you like to see your business listed on this page?

 If your business provides an interesting product or service to pilots, flight crews, aircraft, or users of the Warner Springs Gliderport, you should consider listing it here.  To start the listing process, click on the button below
 
Add a business
 

Other Pages about Warner Springs Gliderport

www.agcsc.org/warner_springs_info.html
 
Update a link
 
Copyright © AirNav, LLC. All rights reserved. Privacy Policy  Contact